HOURLY OBS INDEX

033

Central Coast - east

ALVA BEACH

Site: 033295
Alt: 7.5m
74km ESE of TOWNSVILLE


  Time     Wind        Temp  DP   Baro     Rain since   Rain past  Vis(m), Cloud(base in m), Weather
  local        km/h                         9am  last   hr   10m    
Tue 07:00  ENE 20/ 24  27.3 24.4  1013.1    0.2   0.0   0.0   0.0   ----- 
Tue 07:30  ENE 20/ 24  27.6 24.4  1013.5    0.2   0.0   0.0   0.0   ----- 
Tue 08:00  ENE 17/ 22  28.3 24.3  1013.6    0.2   0.0   0.0   0.0   ----- 
Tue 08:30   NE 22/ 28  28.9 24.5  1013.5    0.2   0.0   0.0   0.0   ----- 
Tue 09:00   NE 20/ 24  29.1 24.2  1013.7    0.2   0.0   0.0   0.0   ----- 
Tue 09:30   NE 19/ 24  29.4 24.3  1013.7    0.0   0.0   0.0   0.0   ----- 
Tue 10:00   NE 20/ 24  29.4 23.8  1013.7    0.0   0.0   0.0   0.0   ----- 
Tue 10:30   NE 17/ 20  28.9 23.8  1013.7    0.0   0.0   0.0   0.0   ----- 
Tue 11:00   NE 15/ 17  29.5 23.7  1013.6    0.0   0.0   0.0   0.0   ----- 
Tue 11:30   NE 17/ 20  30.3 24.2  1013.2    0.0   0.0   0.0   0.0   ----- 
Tue 12:00   NE 15/ 19  30.4 24.8  1012.7    0.0   0.0   0.0   0.0   ----- 
Tue 12:30   NE 17/ 20  30.1 24.0  1012.0    0.0   0.0   0.0   0.0   ----- 

AYR DPI RESEARCH STN

Site: 033002
Alt: 17.0m
71km SE of TOWNSVILLE


  Time     Wind        Temp  DP   Baro     Rain since   Rain past  Vis(m), Cloud(base in m), Weather
  local        km/h                         9am  last   hr   10m    
Tue 07:00    S  2/  7  24.5 22.6  ------   13.0   0.0   0.0   0.0   ----- 
Tue 07:30    C  0/  0  24.6 22.5  ------   13.0   0.0   0.0   0.0   ----- 
Tue 08:00   NE  7/ 13  26.0 23.9  ------   13.0   0.0   0.0   0.0   ----- 
Tue 08:30   NE  9/ 13  27.5 23.7  ------   13.0   0.0   0.0   0.0   ----- 
Tue 09:00   NE 11/ 19  28.3 23.9  ------   13.0   0.0   0.0   0.0   ----- 
Tue 09:30   NE 13/ 19  29.4 22.6  ------    0.0   0.0   0.0   0.0   ----- 
Tue 10:00   NE 15/ 20  30.0 22.4  ------    0.0   0.0   0.0   0.0   ----- 
Tue 10:30   NE 13/ 19  30.4 22.6  ------    0.0   0.0   0.0   0.0   ----- 
Tue 11:00   NE 17/ 24  30.0 21.9  ------    0.0   0.0   0.0   0.0   ----- 
Tue 11:30   NE 17/ 24  30.7 22.6  ------    0.0   0.0   0.0   0.0   ----- 
Tue 12:00   NE 13/ 20  30.8 23.2  ------    0.0   0.0   0.0   0.0   ----- 
Tue 12:30   NE 13/ 20  31.3 22.0  ------    0.0   0.0   0.0   0.0   ----- 

BOWEN AIRPORT AWS

Site: 033327
Alt: 5.9m
km of


  Time     Wind        Temp  DP   Baro     Rain since   Rain past  Vis(m), Cloud(base in m), Weather
  local        km/h                         9am  last   hr   10m    
Tue 07:00  SSE  9/ 11  25.8 23.7  1013.3    0.0   0.0   0.0   0.0   ----- 
Tue 07:30  SSE 11/ 13  26.5 23.6  1013.6    0.0   0.0   0.0   0.0   ----- 
Tue 08:00   SE  9/ 15  27.3 23.5  1013.9    0.0   0.0   0.0   0.0   ----- 
Tue 08:30  ESE 13/ 15  27.6 23.6  1014.0    0.0   0.0   0.0   0.0   ----- 
Tue 09:00   SE 11/ 19  29.1 24.0  1014.0    0.0   0.0   0.0   0.0   ----- 
Tue 09:30    E 11/ 17  28.9 23.8  1014.1    0.0   0.0   0.0   0.0   ----- 
Tue 10:00  ESE 15/ 19  29.4 23.8  1013.8    0.0   0.0   0.0   0.0   ----- 
Tue 10:30  ENE 17/ 24  30.6 22.5  1013.7    0.0   0.0   0.0   0.0   ----- 
Tue 11:00    E 11/ 17  30.5 22.9  1013.6    0.0   0.0   0.0   0.0   ----- 
Tue 11:30   NE 13/ 22  30.6 21.7  1013.2    0.0   0.0   0.0   0.0   ----- 
Tue 12:00  ENE 11/ 20  31.3 22.3  1012.8    0.0   0.0   0.0   0.0   ----- 
Tue 12:30    E 11/ 20  31.9 22.3  1012.3    0.0   0.0   0.0   0.0   ----- 

HAMILTON ISLAND AIRPORT

Site: 033106
Alt: 58.7m
83km ESE of BOWEN


  Time     Wind        Temp  DP   Baro     Rain since   Rain past  Vis(m), Cloud(base in m), Weather
  local        km/h                         9am  last   hr   10m    
Tue 07:00  ENE  9/ 13  27.0 23.3  1013.8    0.0   0.0   0.0   0.0   10000 
Tue 07:30    E 13/ 15  27.7 23.1  1014.0    0.0   0.0   0.0   0.0   10000 
Tue 08:00    E 13/ 15  28.0 23.8  1014.4    0.0   0.0   0.0   0.0   10000|SC 540 
Tue 08:30    E 17/ 20  28.4 23.3  1014.5    0.0   0.0   0.0   0.0   10000|BR 600 
Tue 09:00    E 17/ 22  29.1 23.3  1014.5    0.0   0.0   0.0   0.0   10000|BR 600 
Tue 09:11    E 19/ 22  28.9 23.3  1014.5    0.0   0.0  ----   0.0   10000|BR 660 
Tue 09:30    E 19/ 24  29.1 23.8  1014.5    0.0   0.0   0.0   0.0   10000|BR 660 
Tue 10:00    E 20/ 26  29.5 24.1  1014.4    0.0   0.0   0.0   0.0   10000|BR 660 
Tue 10:30    E 20/ 26  28.9 23.8  1014.2    0.0   0.0   0.0   0.0   10000|BR 660 
Tue 11:00    E 20/ 24  29.4 24.3  1014.0    0.0   0.0   0.0   0.0   10000|BR 660 
Tue 11:30    E 20/ 24  29.6 24.5  1013.7    0.0   0.0   0.0   0.0   10000|SC 720 SC1380 
Tue 12:00  ESE 19/ 20  29.1 23.5  1013.3    0.0   0.0   0.0   0.0   10000|BR 720 BR 840 
Tue 12:30  ESE 19/ 22  29.3 24.0  1012.9    0.0   0.0   0.0   0.0   10000|BR 720 

HAY POINT

Site: 033317
Alt: 7.0m
20km SE of MACKAY


  Time     Wind        Temp  DP   Baro     Rain since   Rain past  Vis(m), Cloud(base in m), Weather
  local        km/h                         9am  last   hr   10m    
Tue 07:00   NE 19/ 24 --------  ------   ----  ----  ----  ----   ----- 
Tue 07:30   NE 17/ 20 --------  ------   ----  ----  ----  ----   ----- 
Tue 08:00   NE 20/ 26 --------  ------   ----  ----  ----  ----   ----- 
Tue 08:30  NNE 17/ 22 --------  ------   ----  ----  ----  ----   ----- 
Tue 09:00   NE 17/ 20 --------  ------   ----  ----  ----  ----   ----- 
Tue 09:30  NNE 17/ 20 --------  ------   ----  ----  ----  ----   ----- 
Tue 10:00  NNE 11/ 15 --------  ------   ----  ----  ----  ----   ----- 
Tue 10:30   NE 13/ 15 --------  ------   ----  ----  ----  ----   ----- 
Tue 11:00   NE 11/ 15 --------  ------   ----  ----  ----  ----   ----- 
Tue 11:30   NE 11/ 15 --------  ------   ----  ----  ----  ----   ----- 
Tue 12:00   NE 11/ 15 --------  ------   ----  ----  ----  ----   ----- 
Tue 12:30  ENE 11/ 13 --------  ------   ----  ----  ----  ----   ----- 

MACKAY AERO

Site: 033045
Alt: 4.7m
3km S of MACKAY


  Time     Wind        Temp  DP   Baro     Rain since   Rain past  Vis(m), Cloud(base in m), Weather
  local        km/h                         9am  last   hr   10m    
Tue 07:00  WSW  7/  9  24.6 23.4  1014.0    0.0   0.0   0.0   0.0   10000 
Tue 07:30   SW  6/  7  25.6 23.7  1014.1    0.0   0.0   0.0   0.0   10000 
Tue 08:00    C  0/  0  26.8 24.1  1014.4    0.0   0.0   0.0   0.0   10000|SC 630 SC1590 
Tue 08:30  SSE  6/ 11  28.0 23.8  1014.7    0.0   0.0   0.0   0.0   10000|SC 600 BR 780 
Tue 09:00  ENE 15/ 20  29.1 21.6  1014.6    0.0   0.0   0.0   0.0   10000|SC 750 SC 930 
Tue 09:30   NE 13/ 20  29.7 22.7  1014.4    0.0   0.0   0.0   0.0   10000 
Tue 10:00    E 15/ 19  29.9 22.6  1014.4    0.0   0.0   0.0   0.0   10000|SC 780 
Tue 10:30    E 17/ 22  29.8 22.3  1014.4    0.0   0.0   0.0   0.0   10000 
Tue 11:00    E 17/ 24  30.0 22.9  1014.0    0.0   0.0   0.0   0.0   10000 
Tue 11:30    E 19/ 24  29.9 22.6  1013.5    0.0   0.0   0.0   0.0   10000 
Tue 12:00    E 20/ 26  30.1 23.8  1013.3    0.0   0.0   0.0   0.0   10000 
Tue 12:30    E 20/ 24  29.9 23.3  1013.0    0.0   0.0   0.0   0.0   10000 

MACKAY M.O

Site: 033119
Alt: 30.3m
5km NE of MACKAY


  Time     Wind        Temp  DP   Baro     Rain since   Rain past  Vis(m), Cloud(base in m), Weather
  local        km/h                         9am  last   hr   10m    
Tue 07:00  NNE  6/ 11  25.8 23.3  1014.0    0.0   0.0   0.0   0.0   -----|SC 600 
Tue 07:30  NNW  4/  9  27.2 24.1  1014.2    0.0   0.0   0.0   0.0   -----|BR 600 BR 870 
Tue 08:00  NNE  9/ 17  28.4 23.3  1014.5    0.0   0.0   0.0   0.0   -----|SC 600 
Tue 08:30   NE  9/ 15  29.1 23.3  1014.7    0.0   0.0   0.0   0.0   ----- 
Tue 09:00  NNE  9/ 13  29.8 24.0  1014.8    0.0   0.0   0.0   0.0   ----- 
Tue 09:30   NE  9/ 13  29.6 22.8  1014.5    0.0   0.0   0.0   0.0   ----- 
Tue 10:00  NNE  7/ 15  30.2 23.9  1014.6    0.0   0.0   0.0   0.0   ----- 
Tue 10:30    E 11/ 17  29.7 22.9  1014.5    0.0   0.0   0.0   0.0   ----- 
Tue 11:00  ENE 11/ 15  28.9 21.9  1014.2    0.0   0.0   0.0   0.0   ----- 
Tue 11:30  ENE  9/ 17  29.5 23.0  1013.8    0.0   0.0   0.0   0.0   ----- 
Tue 12:00  ENE 11/ 15  29.6 23.5  1013.6    0.0   0.0   0.0   0.0   -----|SC 600 
Tue 12:30    E 11/ 17  29.8 24.2  1013.1    0.0   0.0   0.0   0.0   ----- 

OORALEA RACECOURSE (MACKAY TURF CLUB)

Site: 033329
Alt: 10.3m
km of


  Time     Wind        Temp  DP   Baro     Rain since   Rain past  Vis(m), Cloud(base in m), Weather
  local        km/h                         9am  last   hr   10m    
Tue 07:00   NE  2/  6  23.6 23.1  ------    0.0   0.0   0.0   0.0   ----- 
Tue 07:30    C  0/  0  24.6 23.7  ------    0.0   0.0   0.0   0.0   ----- 
Tue 08:00    C  0/  0  26.1 24.9  ------    0.0   0.0   0.0   0.0   ----- 
Tue 08:30    C  0/  0  28.4 24.4  ------    0.0   0.0   0.0   0.0   ----- 
Tue 09:00   NE  6/ 13  29.5 22.2  ------    0.0   0.0   0.0   0.0   ----- 
Tue 09:30  NNE  6/ 11  30.0 22.9  ------    0.0   0.0   0.0   0.0   ----- 
Tue 10:00   NE  7/ 13  29.9 21.3  ------    0.0   0.0   0.0   0.0   ----- 
Tue 10:30    E  9/ 17  29.4 22.4  ------    0.0   0.0   0.0   0.0   ----- 
Tue 11:00    E 11/ 19  29.8 23.3  ------    0.0   0.0   0.0   0.0   ----- 
Tue 11:30  ENE 11/ 17  29.8 22.0  ------    0.0   0.0   0.0   0.0   ----- 
Tue 12:00    E 13/ 24  30.3 23.7  ------    0.0   0.0   0.0   0.0   ----- 
Tue 12:30    E 13/ 22  29.2 22.7  ------    0.0   0.0   0.0   0.0   ----- 

PROSERPINE AIRPORT

Site: 033247
Alt: 19.7m
62km SSE of BOWEN


  Time     Wind        Temp  DP   Baro     Rain since   Rain past  Vis(m), Cloud(base in m), Weather
  local        km/h                         9am  last   hr   10m    
Tue 07:00  SSW  6/  7  23.4 22.9  1013.9    0.0   0.0   0.0   0.0   10000 
Tue 07:30  SSW  7/  9  24.5 23.5  1014.3    0.0   0.0   0.0   0.0   10000 
Tue 08:00  SSW  6/  7  26.0 24.4  1014.5    0.0   0.0   0.0   0.0   10000 
Tue 08:30    S  6/  9  27.3 24.0  1014.7    0.0   0.0   0.0   0.0   10000 
Tue 09:00  ESE  9/ 13  28.1 23.2  1014.7    0.0   0.0   0.0   0.0   10000|SC 450 SC 600 
Tue 09:30  ESE  9/ 13  29.2 23.4  1014.7    0.0   0.0   0.0   0.0   10000|SC 660 SC1050 
Tue 10:00  SSE  7/ 13  28.7 22.4  1014.5    0.0   0.0   0.0   0.0   10000|BR 720 
Tue 10:30   SE 11/ 19  29.9 23.6  1014.2    0.0   0.0   0.0   0.0   10000|SC 780 SC 960 
Tue 11:00   SE 13/ 17  29.3 22.8  1013.9    0.0   0.0   0.0   0.0   10000|SC 900 SC1050 BR1320 
Tue 11:30  ESE 11/ 19  29.7 23.6  1013.5    0.0   0.0   0.0   0.0   10000|SC 900 BR1260 OC1530 
Tue 12:00  ESE 11/ 15  29.6 23.1  1013.1    0.0   0.0   0.0   0.0   10000|BR 900 OC1440 
Tue 12:30  ESE 13/ 20  29.5 22.7  1012.7    0.0   0.0   0.0   0.0   10000|BR 960 BR1650 

ROSSLYN BAY NTC AWS

Site: 033208
Alt: 0.0m
37km NE of ROCKHAMPTON


  Time     Wind        Temp  DP   Baro     Rain since   Rain past  Vis(m), Cloud(base in m), Weather
  local        km/h                         9am  last   hr   10m    
Tue 07:00    S  2/  4  26.1----  1014.3   ----  ----  ----  ----   ----- 
Tue 07:30    N  4/  7  26.9----  1014.6   ----  ----  ----  ----   ----- 
Tue 08:00   NW  2/  6  27.3----  1015.0   ----  ----  ----  ----   ----- 
Tue 08:30    N  4/  7  27.5----  1015.1   ----  ----  ----  ----   ----- 
Tue 09:00   NE  9/ 11  27.8----  1015.1   ----  ----  ----  ----   ----- 
Tue 09:30   NE  6/ 11  27.8----  1015.1   ----  ----  ----  ----   ----- 
Tue 10:00   NE  9/ 15  27.9----  1014.8   ----  ----  ----  ----   ----- 
Tue 10:30   NE  9/ 15  28.0----  1014.7   ----  ----  ----  ----   ----- 
Tue 11:00   NE  9/ 13  28.0----  1014.6   ----  ----  ----  ----   ----- 
Tue 11:30   NE 11/ 15  27.9----  1014.1   ----  ----  ----  ----   ----- 
Tue 12:00   NE 13/ 17  27.7----  1013.7   ----  ----  ----  ----   ----- 
Tue 12:30  ENE  6/ 19  29.2----  1013.3   ----  ----  ----  ----   ----- 

SAMUEL HILL AERO

Site: 033308
Alt: 31.0m
71km NNE of ROCKHAMPTON


  Time     Wind        Temp  DP   Baro     Rain since   Rain past  Vis(m), Cloud(base in m), Weather
  local        km/h                         9am  last   hr   10m    
Tue 07:00    C  0/  0  19.9 19.6  1014.7    0.0   0.0   0.0   0.0   -----|SC  30 SC 120 SC 600 
Tue 07:09    C  0/  0  20.6 20.4  1014.8    0.0   0.0  ----   0.0   -----|SC  30 SC 600 
Tue 07:30    C  0/  0  22.0 21.8  1015.0    0.0   0.0   0.0   0.0   ----- 
Tue 08:00  WNW  4/  7  24.4 22.8  1015.3    0.0   0.0   0.0   0.0   10000|SC 660 
Tue 08:30    C  0/  0  27.2 22.6  1015.5    0.0   0.0   0.0   0.0   10000 
Tue 09:00    E  7/ 13  28.4 22.4  1015.2    0.0   0.0   0.0   0.0   10000|SC 690 SC 870 
Tue 09:30  NNE 13/ 19  29.1 21.3  1015.1    0.0   0.0   0.0   0.0   10000 
Tue 10:00   NE 11/ 17  30.1 20.9  1014.9    0.0   0.0   0.0   0.0   10000 
Tue 10:30   NE 13/ 20  30.7 21.5  1014.8    0.0   0.0   0.0   0.0   10000 
Tue 11:00  ENE 13/ 19  31.1 21.9  1014.5    0.0   0.0   0.0   0.0   10000|SC1080 BR1380 
Tue 11:30    E  9/ 17  30.2 20.4  1014.0    0.0   0.0   0.0   0.0   10000|SC1110 SC1380 BR1800 
Tue 12:00  NNE 11/ 17  29.9 20.5  1013.6    0.0   0.0   0.0   0.0   10000|BR1170 BR1380 OC1650 
Tue 12:30  ENE 13/ 19  30.5 20.1  1013.2    0.0   0.0   0.0   0.0   10000|BR1200 BR1500 

ST LAWRENCE

Site: 033210
Alt: 9.2m
138km SSE of MACKAY


  Time     Wind        Temp  DP   Baro     Rain since   Rain past  Vis(m), Cloud(base in m), Weather
  local        km/h                         9am  last   hr   10m    
Tue 07:00    S  6/ 11  24.5 22.6  1014.2    0.0   0.0   0.0   0.0   ----- 
Tue 07:30    S  7/ 11  25.2 22.5  1014.5    0.0   0.0   0.0   0.0   ----- 
Tue 08:00    S  7/  9  26.3 23.2  1014.5    0.0   0.0   0.0   0.0   ----- 
Tue 08:30  NNE  7/ 19  28.0 22.9  1014.6    0.0   0.0   0.0   0.0   ----- 
Tue 09:00  NNE 17/ 24  29.5 22.0  1014.7    0.0   0.0   0.0   0.0   ----- 
Tue 09:30  NNE 17/ 24  29.5 22.2  1014.7    0.0   0.0   0.0   0.0   ----- 
Tue 10:00  NNE 19/ 24  30.1 21.7  1014.6    0.0   0.0   0.0   0.0   ----- 
Tue 10:30  NNE 17/ 22  30.3 20.8  1014.6    0.0   0.0   0.0   0.0   ----- 
Tue 11:00  NNE 17/ 22  30.8 21.6  1014.4    0.0   0.0   0.0   0.0   ----- 
Tue 11:30   NE 17/ 22  31.0 21.2  1013.9    0.0   0.0   0.0   0.0   ----- 
Tue 12:00  NNE 15/ 22  31.4 21.3  1013.6    0.0   0.0   0.0   0.0   ----- 
Tue 12:30  NNE 17/ 24  31.4 21.3  1013.1    0.0   0.0   0.0   0.0   ----- 

TOWNSVILLE-FANNING RIVER (DEFENCE)

Site: 033328
Alt: 329.0m
67km NNE of TOWNSVILLE


  Time     Wind        Temp  DP   Baro     Rain since   Rain past  Vis(m), Cloud(base in m), Weather
  local        km/h                         9am  last   hr   10m    
Tue 07:00    C  0/  0  22.7 22.4  1014.9    2.2   0.0   0.0   0.0   ----- 
Tue 07:30    E  2/  7  24.1 23.4  1015.2    2.2   0.0   0.0   0.0   ----- 
Tue 08:00  ENE  4/  7  25.6 23.3  1015.4    2.2   0.0   0.0   0.0   ----- 
Tue 08:30  ENE  6/ 11  26.6 23.3  1015.6    2.2   0.0   0.0   0.0   ----- 
Tue 09:00   NE  7/ 19  27.9 23.5  1015.6    2.2   0.0   0.0   0.0   ----- 
Tue 09:30  ENE 15/ 24  28.0 22.2  1015.3    0.0   0.0   0.0   0.0   ----- 
Tue 10:00   NE 13/ 22  29.1 22.3  1015.3    0.0   0.0   0.0   0.0   ----- 
Tue 10:30  ENE 11/ 17  29.9 22.9  1015.3    0.0   0.0   0.0   0.0   ----- 
Tue 11:00  ENE 15/ 24  30.0 22.7  1014.9    0.0   0.0   0.0   0.0   ----- 
Tue 11:30  NNE 11/ 17  30.0 22.2  1014.6    0.0   0.0   0.0   0.0   ----- 
Tue 12:00  NNE 11/ 22  30.8 21.3  1014.0    0.0   0.0   0.0   0.0   ----- 
Tue 12:30  NNE 11/ 20  30.9 21.4  1013.5    0.0   0.0   0.0   0.0   ----- 

WILLIAMSON

Site: 033195
Alt: 27.6m
105km NNW of ROCKHAMPTON


  Time     Wind        Temp  DP   Baro     Rain since   Rain past  Vis(m), Cloud(base in m), Weather
  local        km/h                         9am  last   hr   10m    
Tue 07:00    C  0/  0  23.0 22.7  1014.8    4.4   0.0   0.0   0.0   ----- 
Tue 07:30  ESE  2/  9  26.3 23.8  1015.0    4.4   0.0   0.0   0.0   ----- 
Tue 08:00    E 11/ 20  27.6 22.1  1015.1    4.4   0.0   0.0   0.0   ----- 
Tue 08:30   NE 13/ 20  27.8 21.1  1015.1    4.4   0.0   0.0   0.0   ----- 
Tue 09:00  NNE 13/ 20  28.6 21.4  1015.1    4.4   0.0   0.0   0.0   ----- 
Tue 09:30  NNE 11/ 15  29.2 20.9  1015.1    0.0   0.0   0.0   0.0   ----- 
Tue 10:00   NE 11/ 20  30.5 21.3  1015.0    0.0   0.0   0.0   0.0   ----- 
Tue 10:30  NNE 15/ 22  30.7 19.7  1014.8    0.0   0.0   0.0   0.0   ----- 
Tue 11:00  NNE 13/ 22  31.1 19.8  1014.6    0.0   0.0   0.0   0.0   ----- 
Tue 11:30    N 13/ 24  31.7 19.7  1014.1    0.0   0.0   0.0   0.0   ----- 
Tue 12:00   NE 13/ 22  31.9 19.2  1013.8    0.0   0.0   0.0   0.0   ----- 
Tue 12:30   NE 17/ 24  31.6 19.6  1013.3    0.0   0.0   0.0   0.0   ----- 

WOOLSHED

Site: 033307
Alt: 556.0m
34km WSW of TOWNSVILLE


  Time     Wind        Temp  DP   Baro     Rain since   Rain past  Vis(m), Cloud(base in m), Weather
  local        km/h                         9am  last   hr   10m    
Tue 07:00  NNE  6/ 11  22.6 22.6  1016.1   25.6   0.0   0.0   0.0   ----- 
Tue 07:30   NE  7/ 19  22.7 22.7  1016.5   25.6   0.0   0.0   0.0   ----- 
Tue 08:00   NE  9/ 19  23.0 23.0  1016.6   25.6   0.0   0.0   0.0   ----- 
Tue 08:30   NE 11/ 22  23.3 23.1  1016.8   25.6   0.0   0.0   0.0   ----- 
Tue 09:00  ENE  9/ 20  23.3 22.1  1016.8   25.6   0.0   0.0   0.0   ----- 
Tue 09:30  NNE  7/ 17  23.3 23.0  1016.8    5.2   5.2   5.2   0.0   ----- 
Tue 10:00   NE  9/ 17  24.0 22.4  1016.7    5.2   0.0   5.2   0.0   ----- 
Tue 10:30  NNE  9/ 19  24.3 22.4  1016.8    5.2   0.0   0.0   0.0   ----- 
Tue 11:00   NE 11/ 19  25.3 22.0  1016.6    5.2   0.0   0.0   0.0   ----- 
Tue 11:30   NE  9/ 19  25.9 22.8  1016.3    5.2   0.0   0.0   0.0   ----- 
Tue 12:00   NE  7/ 15  25.9 21.8  1015.6    5.4   0.2   0.2   0.0   ----- 
Tue 12:30   NE  7/ 13  25.8 22.1  1015.2    5.4   0.0   0.2   0.0   ----- 

YEPPOON THE ESPLANADE

Site: 033294
Alt: 5.5m
36km NE of ROCKHAMPTON


  Time     Wind        Temp  DP   Baro     Rain since   Rain past  Vis(m), Cloud(base in m), Weather
  local        km/h                         9am  last   hr   10m    
Tue 07:00  NNW  9/ 13  22.4 21.2  1014.7    0.0   0.0   0.0   0.0   ----- 
Tue 07:30  NNW  6/  7  24.2 22.5  1015.0    0.0   0.0   0.0   0.0   ----- 
Tue 08:00  NNW  2/  7  26.6 22.9  1015.3    0.0   0.0   0.0   0.0   ----- 
Tue 08:30  NNW  4/  9  28.0 22.7  1015.3    0.0   0.0   0.0   0.0   ----- 
Tue 09:00  NNW  7/  9  28.7 22.9  1015.5    0.0   0.0   0.0   0.0   ----- 
Tue 09:30    N  7/ 11  29.2 22.9  1015.4    0.0   0.0   0.0   0.0   ----- 
Tue 10:00  ENE 11/ 15  29.5 23.2  1015.1    0.0   0.0   0.0   0.0   ----- 
Tue 10:30   NE 13/ 17  29.6 23.1  1015.0    0.0   0.0   0.0   0.0   ----- 
Tue 11:00   NE 13/ 17  30.1 23.0  1014.9    0.0   0.0   0.0   0.0   ----- 
Tue 11:30  ENE 15/ 19  29.9 22.6  1014.4    0.0   0.0   0.0   0.0   ----- 
Tue 12:00   NE 17/ 20  29.1 22.8  1014.0    0.0   0.0   0.0   0.0   ----- 
Tue 12:30   NE 19/ 22  29.9 23.3  1013.6    0.0   0.0   0.0   0.0   -----